Time;durP1;ratioP1;P1;durP2;ratioP2;P2;SDS_P1;SDS_P2;PMS_P1;PMS_P2;Temp;Humidity;BMP_temperature;BMP_pressure;BME280_temperature;BME280_humidity;BME280_pressure;Samples;Min_cycle;Max_cycle;Signal;HPM_P1;HPM_P2
2022/03/08 00:00:31;;;;;;;13.20;5.82;;;;;;;2.92;96.80;102537.06;5063092;28;20072;-32
2022/03/08 00:03:00;;;;;;;10.60;5.75;;;;;;;2.92;96.71;102535.16;5072049;28;20516;-28
2022/03/08 00:05:29;;;;;;;11.13;5.88;;;;;;;2.93;96.35;102523.09;5071536;28;20394;-30
2022/03/08 00:07:58;;;;;;;11.18;5.93;;;;;;;2.94;96.14;102523.94;5070799;28;20521;-27
2022/03/08 00:10:27;;;;;;;11.60;5.90;;;;;;;2.95;96.16;102520.97;5071820;28;20049;-29
2022/03/08 00:12:55;;;;;;;12.02;7.05;;;;;;;2.93;95.85;102520.31;5071861;28;20135;-30
2022/03/08 00:15:25;;;;;;;11.10;6.15;;;;;;;2.94;95.90;102519.28;5070722;28;20128;-29
2022/03/08 00:17:54;;;;;;;12.25;6.63;;;;;;;2.95;96.11;102514.59;5072757;28;20048;-32
2022/03/08 00:20:24;;;;;;;12.63;6.85;;;;;;;2.96;95.95;102513.56;5072826;28;20057;-28
2022/03/08 00:22:53;;;;;;;11.05;6.88;;;;;;;2.96;95.88;102517.16;5070901;28;20046;-27
2022/03/08 00:25:21;;;;;;;12.45;6.97;;;;;;;2.95;95.54;102517.38;5071283;28;20502;-27
2022/03/08 00:27:48;;;;;;;10.35;6.03;;;;;;;2.94;95.86;102513.75;5071283;28;20071;-28
2022/03/08 00:30:18;;;;;;;12.80;7.25;;;;;;;2.93;95.56;102513.97;5069222;28;20446;-29
2022/03/08 00:32:46;;;;;;;12.13;7.28;;;;;;;2.89;95.62;102501.66;5070948;28;20053;-28
2022/03/08 00:35:15;;;;;;;12.45;6.80;;;;;;;2.85;96.07;102508.63;5069851;28;20044;-29
2022/03/08 00:37:47;;;;;;;12.77;6.90;;;;;;;2.82;96.17;102504.38;5070147;28;20057;-27
2022/03/08 00:40:16;;;;;;;12.68;7.55;;;;;;;2.80;96.21;102502.91;5064085;28;20040;-30
2022/03/08 00:42:44;;;;;;;13.25;7.25;;;;;;;2.76;96.69;102500.56;5071241;28;20419;-29
2022/03/08 00:45:13;;;;;;;12.48;6.50;;;;;;;2.74;96.62;102496.31;5072815;28;20048;-30
2022/03/08 00:47:41;;;;;;;10.15;6.43;;;;;;;2.73;96.77;102494.59;5072762;28;20135;-27
2022/03/08 00:50:11;;;;;;;11.23;6.72;;;;;;;2.71;96.47;102507.75;5071649;28;20075;-30
2022/03/08 00:52:39;;;;;;;11.73;6.88;;;;;;;2.67;96.81;102499.03;5072618;28;20045;-29
2022/03/08 00:55:10;;;;;;;12.23;6.93;;;;;;;2.66;97.13;102494.56;5072664;28;20043;-30
2022/03/08 00:57:38;;;;;;;12.02;6.90;;;;;;;2.64;96.88;102496.69;5070704;28;20048;-33
2022/03/08 01:00:11;;;;;;;11.43;6.43;;;;;;;2.65;96.94;102497.53;5072711;28;20086;-29
2022/03/08 01:02:39;;;;;;;11.10;6.10;;;;;;;2.64;96.79;102487.56;5072739;28;20048;-29
2022/03/08 01:05:07;;;;;;;10.75;6.35;;;;;;;2.63;96.74;102489.47;5071903;28;20072;-28
2022/03/08 01:07:35;;;;;;;12.10;7.20;;;;;;;2.62;96.72;102490.53;5072731;28;20332;-27
2022/03/08 01:10:05;;;;;;;12.48;6.70;;;;;;;2.61;96.55;102486.06;5072599;28;20525;-30
2022/03/08 01:12:35;;;;;;;13.13;6.95;;;;;;;2.61;96.61;102482.47;5071621;28;20037;-26
2022/03/08 01:15:06;;;;;;;11.93;6.95;;;;;;;2.59;96.20;102479.94;5061577;28;20048;-30
2022/03/08 01:17:34;;;;;;;12.13;6.70;;;;;;;2.58;95.95;102471.88;5072393;28;20045;-26
2022/03/08 01:20:04;;;;;;;11.43;6.22;;;;;;;2.57;95.65;102467.44;5071812;28;20044;-24
2022/03/08 01:22:32;;;;;;;12.15;6.43;;;;;;;2.56;95.81;102460.22;5072004;28;20056;-30
2022/03/08 01:25:00;;;;;;;12.18;6.55;;;;;;;2.53;95.56;102461.47;5071549;28;20044;-28
2022/03/08 01:27:27;;;;;;;11.90;6.47;;;;;;;2.51;95.01;102459.97;5072224;28;20120;-31
2022/03/08 01:29:57;;;;;;;10.88;6.03;;;;;;;2.51;95.26;102462.72;5071272;28;20037;-29
2022/03/08 01:32:24;;;;;;;10.75;6.35;;;;;;;2.48;94.62;102458.47;5070016;28;20058;-28
2022/03/08 01:34:53;;;;;;;12.77;6.88;;;;;;;2.45;94.46;102456.13;5071977;28;20048;-29
2022/03/08 01:37:21;;;;;;;11.90;6.32;;;;;;;2.45;94.59;102447.03;5071755;28;20058;-28
2022/03/08 01:39:49;;;;;;;10.57;6.38;;;;;;;2.42;94.64;102446.38;5071361;28;20044;-26
2022/03/08 01:42:22;;;;;;;11.32;6.00;;;;;;;2.38;94.38;102442.34;5072252;28;20383;-27
2022/03/08 01:44:51;;;;;;;12.35;6.38;;;;;;;2.39;94.00;102443.22;5070681;28;20059;-29
2022/03/08 01:47:23;;;;;;;9.77;5.78;;;;;;;2.37;94.00;102435.16;5071076;28;20048;-27
2022/03/08 01:49:53;;;;;;;10.88;5.88;;;;;;;2.36;93.73;102438.97;5070516;28;20044;-31
2022/03/08 01:52:23;;;;;;;9.95;5.97;;;;;;;2.35;93.98;102444.66;5070593;28;20155;-31
2022/03/08 01:54:52;;;;;;;10.07;6.00;;;;;;;2.33;93.48;102433.00;5071186;28;20476;-28
2022/03/08 01:57:23;;;;;;;9.73;5.55;;;;;;;2.30;93.25;102439.78;5071893;28;20476;-30
2022/03/08 01:59:52;;;;;;;10.55;5.90;;;;;;;2.28;93.44;102430.88;5071920;28;20094;-29
2022/03/08 02:02:22;;;;;;;9.48;5.63;;;;;;;2.27;93.30;102429.16;5069674;28;20048;-29
2022/03/08 02:04:50;;;;;;;8.57;5.38;;;;;;;2.26;92.77;102432.97;5071621;28;20102;-29
2022/03/08 02:07:19;;;;;;;10.55;5.93;;;;;;;2.21;92.77;102438.22;5070979;28;20055;-30
2022/03/08 02:09:47;;;;;;;9.77;5.80;;;;;;;2.20;92.35;102428.28;5060656;28;20067;-29
2022/03/08 02:12:15;;;;;;;9.35;5.50;;;;;;;2.21;91.93;102431.88;5071565;28;20552;-29
2022/03/08 02:14:42;;;;;;;7.07;4.95;;;;;;;2.22;92.00;102428.91;5070787;28;20461;-31
2022/03/08 02:17:11;;;;;;;9.07;5.50;;;;;;;2.20;91.88;102436.53;5071462;28;20043;-29
2022/03/08 02:19:40;;;;;;;9.35;5.30;;;;;;;2.18;91.72;102427.66;5071565;28;20218;-27
2022/03/08 02:22:09;;;;;;;8.23;5.20;;;;;;;2.16;91.68;102416.00;5071003;28;20064;-29
2022/03/08 02:24:37;;;;;;;8.98;5.40;;;;;;;2.12;91.43;102422.97;5071029;28;20047;-27
2022/03/08 02:27:04;;;;;;;10.15;5.25;;;;;;;2.12;91.61;102414.69;5071615;28;20123;-28
2022/03/08 02:29:32;;;;;;;9.38;5.63;;;;;;;2.12;90.97;102413.84;5070373;28;20143;-28
2022/03/08 02:32:00;;;;;;;10.68;5.80;;;;;;;2.11;90.99;102415.75;5070491;28;20481;-27
2022/03/08 02:34:28;;;;;;;11.32;5.65;;;;;;;2.09;90.92;102401.34;5071559;28;20084;-29
2022/03/08 02:37:00;;;;;;;9.70;6.30;;;;;;;2.09;90.87;102401.34;5070180;28;20067;-28
2022/03/08 02:39:29;;;;;;;;;;;;;;;2.03;90.51;102407.66;5071955;28;20052;-31
2022/03/08 02:41:57;;;;;;;9.90;5.47;;;;;;;2.04;91.00;102398.34;5071011;28;20310;-28
2022/03/08 02:44:25;;;;;;;9.93;5.43;;;;;;;2.04;90.93;102401.94;5070384;28;20052;-27
2022/03/08 02:46:53;;;;;;;10.98;5.70;;;;;;;2.05;90.95;102397.28;5071351;28;20052;-29
2022/03/08 02:49:21;;;;;;;11.13;6.13;;;;;;;2.04;91.06;102403.84;5070512;28;20409;-27
2022/03/08 02:51:48;;;;;;;9.18;5.53;;;;;;;2.02;91.09;102392.19;5071223;28;20071;-33
2022/03/08 02:54:16;;;;;;;10.73;5.57;;;;;;;2.00;90.50;102386.88;5071059;28;20179;-27
2022/03/08 02:56:45;;;;;;;8.98;5.53;;;;;;;1.98;90.60;102382.66;5070108;28;20044;-31
2022/03/08 02:59:19;;;;;;;8.63;5.15;;;;;;;1.96;90.71;102384.78;5071187;28;20056;-28
2022/03/08 03:01:47;;;;;;;9.00;5.10;;;;;;;1.93;91.44;102387.94;5071287;28;20043;-29
2022/03/08 03:04:16;;;;;;;10.18;5.50;;;;;;;1.88;91.77;102384.94;5070345;28;20045;-32
2022/03/08 03:06:44;;;;;;;9.63;5.78;;;;;;;1.88;91.36;102383.03;5070971;28;20102;-35
2022/03/08 03:09:12;;;;;;;9.32;5.80;;;;;;;1.85;92.03;102377.09;5070806;28;20512;-28
2022/03/08 03:11:40;;;;;;;10.63;6.15;;;;;;;1.85;91.78;102377.09;5070032;28;20037;-28
2022/03/08 03:14:09;;;;;;;12.35;6.05;;;;;;;1.87;91.67;102383.25;5069521;28;20131;-32
2022/03/08 03:16:37;;;;;;;9.95;6.03;;;;;;;1.84;92.48;102380.88;5070901;28;20041;-26
2022/03/08 03:19:05;;;;;;;9.82;6.43;;;;;;;1.85;92.00;102371.56;5070280;28;20098;-30
2022/03/08 03:21:33;;;;;;;10.05;6.25;;;;;;;1.85;92.35;102355.06;5070288;28;20098;-29
2022/03/08 03:24:01;;;;;;;8.77;6.13;;;;;;;1.87;92.68;102367.56;5071270;28;20055;-27
2022/03/08 03:26:29;;;;;;;10.90;6.50;;;;;;;1.87;92.20;102370.31;5070115;28;20048;-28
2022/03/08 03:28:57;;;;;;;10.63;6.28;;;;;;;1.85;93.18;102366.06;5070835;28;20135;-29
2022/03/08 03:31:26;;;;;;;12.43;7.05;;;;;;;1.83;92.75;102365.44;5070855;28;20047;-30
2022/03/08 03:33:54;;;;;;;10.43;7.05;;;;;;;1.83;93.03;102377.28;5069486;28;20186;-26
2022/03/08 03:36:22;;;;;;;10.68;6.70;;;;;;;1.83;93.28;102368.19;5070948;28;20413;-28
2022/03/08 03:38:49;;;;;;;10.98;6.15;;;;;;;1.85;92.91;102366.06;5071062;28;20063;-29
2022/03/08 03:41:18;;;;;;;9.05;5.70;;;;;;;1.86;93.14;102373.28;5074379;28;20049;-30
2022/03/08 03:43:45;;;;;;;8.40;5.85;;;;;;;1.83;93.04;102369.03;5074301;28;20045;-29
2022/03/08 03:46:13;;;;;;;9.63;6.22;;;;;;;1.82;93.16;102364.56;5073346;28;20044;-35
2022/03/08 03:48:42;;;;;;;11.10;6.35;;;;;;;1.80;92.71;102363.13;5074143;28;20409;-30
2022/03/08 03:51:11;;;;;;;8.90;6.00;;;;;;;1.78;92.99;102362.47;5074076;28;20056;-28
2022/03/08 03:53:39;;;;;;;9.88;6.35;;;;;;;1.75;92.80;102358.22;5073439;28;20059;-28
2022/03/08 03:56:07;;;;;;;10.43;6.65;;;;;;;1.75;93.25;102360.97;5073910;28;20559;-30
2022/03/08 03:58:35;;;;;;;10.40;6.13;;;;;;;1.77;92.31;102367.13;5074042;28;20041;-29
2022/03/08 04:01:02;;;;;;;10.20;6.00;;;;;;;1.75;92.10;102366.47;5073192;28;20047;-28
2022/03/08 04:03:31;;;;;;;10.52;6.57;;;;;;;1.78;92.68;102367.97;5073838;28;20121;-29
2022/03/08 04:06:00;;;;;;;9.68;6.35;;;;;;;1.76;91.79;102364.56;5074009;28;20050;-26
2022/03/08 04:08:29;;;;;;;9.18;6.07;;;;;;;1.77;91.79;102355.25;5073229;28;20387;-29
2022/03/08 04:10:57;;;;;;;9.02;5.82;;;;;;;1.77;91.30;102367.13;5073871;28;20056;-29
2022/03/08 04:13:24;;;;;;;9.75;6.20;;;;;;;1.77;91.53;102363.50;5073679;28;20045;-29
2022/03/08 04:15:53;;;;;;;12.23;6.43;;;;;;;1.77;90.80;102349.75;5072984;28;20048;-29
2022/03/08 04:18:21;;;;;;;8.48;5.47;;;;;;;1.77;90.67;102349.75;5073287;28;20115;-28
2022/03/08 04:20:49;;;;;;;9.18;5.93;;;;;;;1.76;90.17;102354.41;5071083;28;20060;-28
2022/03/08 04:23:18;;;;;;;9.20;5.38;;;;;;;1.70;90.48;102339.56;5071446;28;20044;-31
2022/03/08 04:25:45;;;;;;;9.35;5.18;;;;;;;1.66;90.06;102341.00;5070462;28;20040;-29
2022/03/08 04:28:13;;;;;;;7.55;5.68;;;;;;;1.63;90.49;102346.91;5070861;28;20483;-27
2022/03/08 04:30:41;;;;;;;8.30;5.32;;;;;;;1.57;90.43;102338.66;5071344;28;20048;-29
2022/03/08 04:33:09;;;;;;;9.77;5.63;;;;;;;1.54;90.91;102342.66;5071567;28;20131;-29
2022/03/08 04:35:36;;;;;;;8.07;5.65;;;;;;;1.51;91.09;102339.47;5070997;28;20577;-31
2022/03/08 04:38:04;;;;;;;9.75;5.80;;;;;;;1.48;90.91;102340.72;5064414;28;20509;-28
2022/03/08 04:40:34;;;;;;;10.18;6.20;;;;;;;1.47;90.96;102336.25;5073463;28;20055;-25
2022/03/08 04:43:01;;;;;;;10.32;6.35;;;;;;;1.45;91.16;102341.09;5072076;28;20505;-26
2022/03/08 04:45:29;;;;;;;10.10;6.47;;;;;;;1.44;90.90;102342.16;5073005;28;20511;-29
2022/03/08 04:47:57;;;;;;;9.05;5.70;;;;;;;1.44;91.08;102344.06;5073127;28;20056;-29
2022/03/08 04:50:25;;;;;;;8.07;5.65;;;;;;;1.45;90.44;102343.84;5071262;28;20437;-29
2022/03/08 04:52:53;;;;;;;9.98;6.55;;;;;;;1.46;90.42;102330.94;5072763;28;20045;-26
2022/03/08 04:55:21;;;;;;;10.73;5.90;;;;;;;1.45;90.52;102337.50;5072629;28;20044;-28
2022/03/08 04:57:57;;;;;;;9.00;6.20;;;;;;;1.45;90.16;102326.50;5070927;28;20070;-26
2022/03/08 05:00:26;;;;;;;8.63;5.90;;;;;;;1.45;90.03;102321.84;5071490;28;20051;-28
2022/03/08 05:02:54;;;;;;;10.52;5.97;;;;;;;1.47;89.95;102318.91;5072712;28;20048;-28
2022/03/08 05:05:22;;;;;;;10.13;6.22;;;;;;;1.49;89.47;102316.81;5072225;28;20081;-27
2022/03/08 05:07:49;;;;;;;8.30;5.50;;;;;;;1.50;89.21;102316.59;5072468;28;20401;-29
2022/03/08 05:10:17;;;;;;;7.78;5.30;;;;;;;1.52;88.76;102320.00;5071934;28;20401;-28
2022/03/08 05:12:45;;;;;;;10.82;6.47;;;;;;;1.52;88.57;102319.16;5072486;28;20519;-27
2022/03/08 05:15:14;;;;;;;8.32;5.75;;;;;;;1.51;88.73;102312.78;5072179;28;20547;-26
2022/03/08 05:17:42;;;;;;;8.70;5.50;;;;;;;1.53;87.91;102318.94;5071758;28;20088;-28
2022/03/08 05:20:11;;;;;;;8.80;5.50;;;;;;;1.54;87.96;102311.53;5072216;28;20089;-29
2022/03/08 05:22:39;;;;;;;9.23;6.05;;;;;;;1.52;87.07;102314.50;5072249;28;20044;-29
2022/03/08 05:25:07;;;;;;;8.88;5.63;;;;;;;1.52;87.32;102309.00;5071428;28;20044;-29
2022/03/08 05:27:35;;;;;;;10.90;6.03;;;;;;;1.53;86.62;102321.69;5071622;28;20523;-27
2022/03/08 05:30:04;;;;;;;8.20;6.35;;;;;;;1.55;86.49;102324.25;5070290;28;20044;-29
2022/03/08 05:32:33;;;;;;;10.07;6.20;;;;;;;1.54;86.38;102326.16;5069476;28;20051;-29
2022/03/08 05:35:01;;;;;;;9.30;6.00;;;;;;;1.56;85.26;102313.03;5061724;28;20053;-29
2022/03/08 05:37:29;;;;;;;9.35;5.70;;;;;;;1.58;85.24;102313.69;5069989;28;20052;-29
2022/03/08 05:39:56;;;;;;;9.30;6.00;;;;;;;1.57;85.21;102309.25;5068904;28;20049;-28
2022/03/08 05:42:24;;;;;;;8.55;6.03;;;;;;;1.57;84.49;102312.00;5070008;28;20072;-27
2022/03/08 05:44:52;;;;;;;7.35;5.18;;;;;;;1.60;84.06;102310.75;5070672;28;20036;-27
2022/03/08 05:47:20;;;;;;;7.93;5.63;;;;;;;1.60;83.94;102306.06;5070047;28;20048;-29
2022/03/08 05:49:49;;;;;;;8.65;5.97;;;;;;;1.63;83.99;102315.81;5071059;28;20048;-37
2022/03/08 05:52:17;;;;;;;9.50;6.22;;;;;;;1.62;83.16;102308.59;5069629;28;20485;-27
2022/03/08 05:54:44;;;;;;;9.98;5.50;;;;;;;1.61;83.14;102309.66;5070090;28;20494;-30
2022/03/08 05:57:12;;;;;;;7.68;5.50;;;;;;;1.64;82.94;102310.09;5070371;28;20490;-31
2022/03/08 05:59:40;;;;;;;9.85;5.75;;;;;;;1.67;82.97;102311.59;5067743;28;20045;-29
2022/03/08 06:02:07;;;;;;;8.82;5.88;;;;;;;1.65;82.55;102317.31;5069607;28;20049;-27
2022/03/08 06:04:35;;;;;;;7.70;5.47;;;;;;;1.67;82.29;102312.44;5069428;28;20072;-27
2022/03/08 06:07:05;;;;;;;9.75;5.75;;;;;;;1.68;82.36;102305.88;5068501;28;20441;-28
2022/03/08 06:09:32;;;;;;;8.48;6.03;;;;;;;1.67;81.94;102306.94;5070038;28;20059;-32
2022/03/08 06:12:01;;;;;;;9.98;5.13;;;;;;;1.68;82.00;102303.13;5069319;28;20052;-26
2022/03/08 06:14:29;;;;;;;8.73;6.13;;;;;;;1.68;82.00;102302.28;5069085;28;20048;-26
2022/03/08 06:16:57;;;;;;;8.70;6.10;;;;;;;1.69;81.85;102304.84;5069735;28;20048;-30
2022/03/08 06:19:25;;;;;;;9.30;5.57;;;;;;;1.69;81.07;102299.34;5069468;28;20055;-28
2022/03/08 06:21:53;;;;;;;9.02;5.80;;;;;;;1.68;81.07;102297.63;5068751;28;20041;-31
2022/03/08 06:24:22;;;;;;;9.90;5.82;;;;;;;1.70;81.14;102295.53;5069052;28;20059;-27
2022/03/08 06:26:50;;;;;;;9.63;6.28;;;;;;;1.70;80.41;102292.78;5069487;28;20055;-29
2022/03/08 06:29:17;;;;;;;8.38;5.47;;;;;;;1.71;80.89;102311.00;5069910;28;20051;-30
2022/03/08 06:31:45;;;;;;;10.50;6.28;;;;;;;1.74;80.58;102306.97;5071027;28;20057;-26
2022/03/08 06:34:14;;;;;;;8.50;5.65;;;;;;;1.72;80.83;102304.44;5070782;28;20055;-30
2022/03/08 06:36:42;;;;;;;8.23;5.30;;;;;;;1.76;80.64;102309.53;5068391;28;20048;-26
2022/03/08 06:39:10;;;;;;;8.38;5.55;;;;;;;1.76;80.49;102302.13;5067238;28;20045;-29
2022/03/08 06:41:44;;;;;;;7.18;5.15;;;;;;;1.78;81.01;102310.19;5067685;28;20117;-28
2022/03/08 06:44:12;;;;;;;9.90;6.10;;;;;;;1.74;80.62;102315.25;5070238;28;20054;-32
2022/03/08 06:46:44;;;;;;;10.57;6.28;;;;;;;1.75;80.47;102313.34;5070643;28;20036;-29
2022/03/08 06:49:11;;;;;;;9.00;5.93;;;;;;;1.79;80.54;102314.63;5069883;28;20398;-30
2022/03/08 06:51:39;;;;;;;11.65;6.97;;;;;;;1.79;80.83;102315.47;5070578;28;20041;-32
2022/03/08 06:54:08;;;;;;;9.82;6.43;;;;;;;1.84;80.30;102312.94;5070385;28;20041;-26
2022/03/08 06:56:36;;;;;;;10.02;5.47;;;;;;;1.89;79.94;102315.94;5069840;28;20052;-28
2022/03/08 06:59:05;;;;;;;7.55;5.93;;;;;;;1.89;80.05;102323.34;5070505;28;20037;-28
2022/03/08 07:01:33;;;;;;;9.77;5.72;;;;;;;1.92;79.75;102321.03;5059514;28;20159;-30
2022/03/08 07:04:01;;;;;;;8.65;5.90;;;;;;;1.94;79.99;102320.81;5068354;28;20048;-28
2022/03/08 07:06:29;;;;;;;9.93;6.30;;;;;;;1.99;79.29;102321.06;5070395;28;20063;-27
2022/03/08 07:08:57;;;;;;;9.30;6.53;;;;;;;2.10;79.84;102317.69;5070081;28;20055;-26
2022/03/08 07:11:25;;;;;;;8.65;6.10;;;;;;;2.31;79.81;102317.53;5065911;28;20055;-30
2022/03/08 07:13:53;;;;;;;9.43;5.65;;;;;;;2.59;79.26;102324.78;5071216;28;20154;-26
2022/03/08 07:16:22;;;;;;;9.80;5.93;;;;;;;2.91;77.72;102314.81;5074016;28;20037;-30
2022/03/08 07:18:50;;;;;;;9.77;6.22;;;;;;;3.20;76.03;102319.03;5073251;28;20067;-28
2022/03/08 07:21:18;;;;;;;8.05;6.07;;;;;;;3.49;74.40;102324.06;5073676;28;20493;-27
2022/03/08 07:23:46;;;;;;;9.00;5.78;;;;;;;3.79;73.14;102324.41;5073375;28;20059;-28
2022/03/08 07:26:13;;;;;;;10.00;5.53;;;;;;;4.07;70.90;102326.78;5073987;28;20094;-28
2022/03/08 07:28:41;;;;;;;8.55;5.63;;;;;;;4.38;69.45;102324.09;5073857;28;20055;-27
2022/03/08 07:31:12;;;;;;;7.50;5.55;;;;;;;4.72;69.96;102327.44;5072904;28;20040;-30
2022/03/08 07:33:41;;;;;;;10.10;6.18;;;;;;;4.91;64.72;102331.97;5073401;28;20489;-32
2022/03/08 07:36:09;;;;;;;8.18;5.47;;;;;;;5.17;65.75;102328.13;5073738;28;20048;-30
2022/03/08 07:38:37;;;;;;;10.25;6.20;;;;;;;5.32;61.38;102323.06;5072671;28;20056;-29
2022/03/08 07:41:06;;;;;;;7.80;5.57;;;;;;;5.58;63.63;102310.88;5073578;28;20036;-28
2022/03/08 07:43:35;;;;;;;8.30;5.38;;;;;;;5.85;62.24;102305.84;5073578;28;20043;-33
2022/03/08 07:46:03;;;;;;;9.55;5.50;;;;;;;6.12;61.03;102304.47;5072617;28;20127;-30
2022/03/08 07:48:31;;;;;;;8.93;6.28;;;;;;;6.22;57.04;102306.66;5073333;28;20148;-31
2022/03/08 07:51:00;;;;;;;9.10;5.35;;;;;;;6.38;58.99;102310.72;5073389;28;20481;-30
2022/03/08 07:53:28;;;;;;;9.63;5.82;;;;;;;6.52;57.56;102304.72;5072821;28;20049;-32
2022/03/08 07:55:56;;;;;;;8.75;5.90;;;;;;;6.68;57.15;102307.91;5073517;28;20465;-32
2022/03/08 07:58:24;;;;;;;6.65;4.93;;;;;;;6.82;57.09;102301.88;5073516;28;20044;-32
2022/03/08 08:00:51;;;;;;;8.35;5.80;;;;;;;7.05;55.56;102314.94;5072445;28;20048;-29
2022/03/08 08:03:20;;;;;;;7.13;5.10;;;;;;;7.15;54.84;102312.44;5073691;28;20052;-30
2022/03/08 08:05:48;;;;;;;7.07;5.43;;;;;;;7.17;53.40;102317.75;5073417;28;20063;-30
2022/03/08 08:08:17;;;;;;;6.40;5.20;;;;;;;7.25;54.18;102315.44;5073348;28;20128;-29
2022/03/08 08:10:45;;;;;;;9.02;6.22;;;;;;;7.15;50.06;102317.97;5073167;28;20159;-30
2022/03/08 08:13:13;;;;;;;8.05;5.40;;;;;;;7.08;52.05;102311.69;5071820;28;20037;-32
2022/03/08 08:15:41;;;;;;;9.05;5.53;;;;;;;7.13;51.79;102311.81;5072034;28;20130;-28
2022/03/08 08:18:13;;;;;;;;;;;;;;;7.14;49.83;102321.84;5073557;28;20049;-34
2022/03/08 08:20:41;;;;;;;8.73;5.63;;;;;;;7.18;52.34;102313.88;5072355;28;19924;-31
2022/03/08 08:23:09;;;;;;;7.88;5.03;;;;;;;7.28;52.69;102308.56;5073336;28;20051;-28
2022/03/08 08:25:38;;;;;;;7.32;5.70;;;;;;;7.27;51.55;102312.41;5072598;28;20052;-28
2022/03/08 08:28:06;;;;;;;8.32;6.07;;;;;;;7.40;51.67;102308.53;5072111;28;20056;-32
2022/03/08 08:30:34;;;;;;;6.82;5.07;;;;;;;7.50;51.78;102300.44;5073119;28;20045;-31
2022/03/08 08:33:02;;;;;;;7.28;5.47;;;;;;;7.65;50.06;102305.50;5073220;28;20064;-30
2022/03/08 08:35:31;;;;;;;8.13;5.50;;;;;;;7.60;50.16;102309.84;5072145;28;20139;-30
2022/03/08 08:37:59;;;;;;;6.20;4.90;;;;;;;7.74;50.50;102310.44;5072663;28;20469;-35
2022/03/08 08:40:27;;;;;;;7.50;5.43;;;;;;;7.89;48.19;102294.09;5072706;28;20059;-35
2022/03/08 08:42:57;;;;;;;7.70;5.40;;;;;;;8.07;47.63;102309.72;5059915;28;20102;-28
2022/03/08 08:45:24;;;;;;;8.43;5.20;;;;;;;8.10;48.68;102303.69;5072580;28;20456;-35
2022/03/08 08:47:53;;;;;;;7.32;5.53;;;;;;;8.04;49.05;102295.47;5071262;28;20048;-34
2022/03/08 08:50:20;;;;;;;8.32;5.78;;;;;;;8.03;47.38;102307.69;5071899;28;20052;-35
2022/03/08 08:52:48;;;;;;;8.60;5.88;;;;;;;7.98;48.78;102299.25;5069050;28;20048;-30
2022/03/08 08:55:16;;;;;;;7.18;5.53;;;;;;;7.98;47.84;102296.47;5072165;28;20424;-30
2022/03/08 08:57:44;;;;;;;7.47;5.30;;;;;;;7.94;47.48;102298.91;5072028;28;20060;-28
2022/03/08 09:00:14;;;;;;;9.93;5.35;;;;;;;7.73;47.83;102296.78;5072418;28;20060;-30
2022/03/08 09:02:43;;;;;;;6.50;5.30;;;;;;;7.65;47.91;102299.94;5071541;28;20493;-36
2022/03/08 09:05:12;;;;;;;8.43;5.53;;;;;;;7.60;48.75;102286.78;5072199;28;20539;-29
2022/03/08 09:07:40;;;;;;;6.88;5.32;;;;;;;7.58;48.67;102289.81;5071986;28;20127;-29
2022/03/08 09:10:10;;;;;;;8.57;5.00;;;;;;;7.75;48.73;102295.47;5071658;28;20044;-32
2022/03/08 09:12:37;;;;;;;6.93;4.88;;;;;;;7.67;47.75;102301.38;5070878;28;20446;-30
2022/03/08 09:15:06;;;;;;;7.05;5.20;;;;;;;7.73;48.06;102283.75;5071839;28;20131;-30
2022/03/08 09:17:37;;;;;;;6.72;5.32;;;;;;;7.83;48.00;102289.50;5071265;28;20048;-29
2022/03/08 09:20:07;;;;;;;8.60;5.45;;;;;;;7.82;47.03;102284.19;5071646;28;20040;-30
2022/03/08 09:22:34;;;;;;;6.65;5.07;;;;;;;8.06;48.19;102283.03;5063879;28;20053;-30
2022/03/08 09:25:02;;;;;;;5.70;4.57;;;;;;;8.18;46.74;102294.97;5070931;28;20049;-28
2022/03/08 09:27:30;;;;;;;8.63;5.03;;;;;;;8.14;45.57;102292.91;5071460;28;20052;-29
2022/03/08 09:29:58;;;;;;;7.22;4.80;;;;;;;8.03;45.71;102277.94;5071567;28;20089;-31
2022/03/08 09:32:26;;;;;;;8.38;5.30;;;;;;;8.09;46.51;102265.00;5070796;28;20041;-30
2022/03/08 09:34:55;;;;;;;7.05;4.90;;;;;;;8.36;47.52;102266.13;5071686;28;20195;-30
2022/03/08 09:37:23;;;;;;;6.35;4.78;;;;;;;8.48;46.44;102266.03;5070108;28;20041;-27
2022/03/08 09:39:50;;;;;;;5.65;4.65;;;;;;;8.54;46.51;102260.31;5071385;28;20040;-28
2022/03/08 09:42:18;;;;;;;6.72;5.10;;;;;;;8.61;45.32;102262.94;5071290;28;20067;-27
2022/03/08 09:44:48;;;;;;;5.97;4.57;;;;;;;8.62;46.00;102253.50;5069037;28;20485;-32
2022/03/08 09:47:17;;;;;;;7.57;5.03;;;;;;;8.69;45.78;102272.81;5071460;28;20053;-28
2022/03/08 09:49:45;;;;;;;7.07;5.47;;;;;;;8.56;45.20;102266.50;5071554;28;20098;-29
2022/03/08 09:52:14;;;;;;;6.53;5.13;;;;;;;8.58;44.83;102263.47;5070926;28;20047;-33
2022/03/08 09:54:43;;;;;;;6.75;5.05;;;;;;;8.46;44.05;102254.31;5070134;28;20063;-29
2022/03/08 09:57:12;;;;;;;6.85;4.80;;;;;;;8.52;44.43;102256.94;5071344;28;20389;-31
2022/03/08 09:59:40;;;;;;;6.50;5.10;;;;;;;8.57;43.33;102259.84;5069921;28;20052;-31
2022/03/08 10:02:10;;;;;;;5.60;4.65;;;;;;;8.69;43.84;102240.25;5071533;28;20040;-34
2022/03/08 10:04:40;;;;;;;5.57;4.22;;;;;;;8.64;43.84;102252.13;5071460;28;20062;-28
2022/03/08 10:07:29;;;;;;;7.22;4.53;;;;;;;8.74;42.85;102245.06;5070510;28;20073;-32
2022/03/08 10:09:57;;;;;;;7.13;4.85;;;;;;;8.70;42.75;102238.31;5070729;28;20390;-29
2022/03/08 10:12:26;;;;;;;6.35;4.43;;;;;;;8.70;42.26;102232.75;5071146;28;20139;-28
2022/03/08 10:14:54;;;;;;;6.78;4.57;;;;;;;8.64;42.46;102238.22;5070975;28;20058;-30
2022/03/08 10:17:36;;;;;;;7.45;4.95;;;;;;;8.57;41.61;102223.66;5071039;28;20048;-27
2022/03/08 10:20:06;;;;;;;7.18;4.78;;;;;;;8.54;43.11;102221.38;5070037;28;20055;-28
2022/03/08 10:22:38;;;;;;;7.38;5.00;;;;;;;8.77;42.78;102227.88;5070837;28;20374;-29
2022/03/08 10:25:13;;;;;;;6.22;4.32;;;;;;;8.57;41.67;102222.81;5070933;28;20494;-30
2022/03/08 10:27:58;;;;;;;6.90;4.90;;;;;;;8.68;43.63;102230.22;5069626;28;20082;-30
2022/03/08 10:30:27;;;;;;;6.55;4.78;;;;;;;8.77;42.91;102216.75;5070761;28;20049;-30
2022/03/08 10:33:04;;;;;;;6.13;4.53;;;;;;;8.96;42.67;102218.16;5070717;28;20052;-30
2022/03/08 10:35:37;;;;;;;5.65;4.30;;;;;;;8.97;42.43;102214.28;5070073;28;20044;-30
2022/03/08 10:38:08;;;;;;;6.68;4.65;;;;;;;8.94;41.94;102217.56;5070610;28;20087;-29
2022/03/08 10:40:37;;;;;;;6.40;4.67;;;;;;;8.88;41.64;102219.41;5070490;28;20036;-27
2022/03/08 10:43:06;;;;;;;7.15;4.75;;;;;;;8.86;41.37;102204.91;5070950;28;20295;-29
2022/03/08 10:45:36;;;;;;;6.68;4.70;;;;;;;8.94;42.13;102214.78;5071133;28;20044;-32
2022/03/08 10:48:06;;;;;;;5.68;5.03;;;;;;;8.93;40.88;102204.75;5070514;28;20103;-27
2022/03/08 10:50:36;;;;;;;6.22;4.43;;;;;;;8.86;40.38;102213.25;5075183;28;20075;-26
2022/03/08 10:53:07;;;;;;;5.75;4.30;;;;;;;8.92;41.50;102203.06;5075138;28;20044;-29
2022/03/08 10:55:37;;;;;;;8.65;4.63;;;;;;;8.94;40.99;102201.69;5074446;28;20087;-34
2022/03/08 10:58:06;;;;;;;5.90;4.57;;;;;;;8.97;40.56;102194.78;5075190;28;20457;-31
2022/03/08 11:00:38;;;;;;;5.57;4.15;;;;;;;9.09;40.40;102194.66;5074885;28;20040;-33
2022/03/08 11:03:08;;;;;;;6.70;4.90;;;;;;;9.11;40.40;102187.75;5074283;28;20044;-30
2022/03/08 11:05:39;;;;;;;5.60;3.80;;;;;;;9.31;40.70;102189.97;5075025;28;20053;-29
2022/03/08 11:08:10;;;;;;;6.30;4.30;;;;;;;9.40;40.65;102179.19;5074659;28;20674;-32
2022/03/08 11:10:38;;;;;;;6.00;4.00;;;;;;;9.40;40.95;102184.75;5074186;28;20082;-29
2022/03/08 11:13:07;;;;;;;4.53;3.78;;;;;;;9.42;40.69;102190.94;5074545;28;20041;-32
2022/03/08 11:15:37;;;;;;;6.47;4.13;;;;;;;9.36;40.14;102187.25;5074690;28;20044;-31
2022/03/08 11:18:06;;;;;;;6.20;4.07;;;;;;;9.38;40.38;102179.47;5073679;28;20048;-28
2022/03/08 11:20:35;;;;;;;5.63;4.40;;;;;;;9.43;39.08;102159.19;5074529;28;20040;-34
2022/03/08 11:23:04;;;;;;;6.03;4.43;;;;;;;9.48;40.37;102162.88;5073386;28;20044;-28
2022/03/08 11:25:35;;;;;;;4.95;4.07;;;;;;;9.40;39.71;102157.75;5074431;28;20516;-31
2022/03/08 11:28:20;;;;;;;5.68;4.43;;;;;;;9.31;40.61;102137.03;5074432;28;20041;-29
2022/03/08 11:30:51;;;;;;;5.80;4.22;;;;;;;9.52;40.36;102147.31;5073486;28;20064;-30
2022/03/08 11:33:32;;;;;;;4.82;3.95;;;;;;;9.74;39.29;102149.25;5074749;28;20044;-32
2022/03/08 11:36:06;;;;;;;5.03;4.20;;;;;;;9.72;39.50;102134.72;5074477;28;20048;-29
2022/03/08 11:38:33;;;;;;;5.63;3.80;;;;;;;9.71;39.47;102133.88;5073039;28;20056;-30